createdAt,value
2022-11-19T00:00:20.146Z,3.63
2022-11-19T00:02:50.455Z,3.67
2022-11-19T00:05:20.298Z,3.90
2022-11-19T00:07:49.484Z,3.43
2022-11-19T00:10:19.960Z,3.63
2022-11-19T00:12:54.893Z,3.57
2022-11-19T00:15:25.790Z,2.93
2022-11-19T00:17:54.785Z,3.07
2022-11-19T00:20:24.823Z,3.50
2022-11-19T00:22:55.487Z,2.90
2022-11-19T00:25:27.377Z,3.00
2022-11-19T00:27:58.339Z,3.67
2022-11-19T00:33:18.554Z,3.40
2022-11-19T00:35:48.011Z,3.27
2022-11-19T00:38:17.490Z,3.37
2022-11-19T00:40:47.632Z,3.10
2022-11-19T00:43:34.392Z,3.80
2022-11-19T00:46:06.090Z,4.17
2022-11-19T00:48:35.986Z,4.03
2022-11-19T00:51:04.702Z,3.47
2022-11-19T00:53:34.134Z,3.00
2022-11-19T00:56:04.400Z,3.27
2022-11-19T00:58:33.081Z,3.17
2022-11-19T01:01:03.274Z,4.23
2022-11-19T01:03:32.643Z,3.20
2022-11-19T01:06:02.716Z,3.00
2022-11-19T01:08:32.997Z,3.80
2022-11-19T01:11:07.598Z,3.47
2022-11-19T01:13:38.184Z,3.33
2022-11-19T01:16:11.996Z,3.30
2022-11-19T01:18:43.747Z,3.57
2022-11-19T01:21:13.623Z,4.33
2022-11-19T01:23:44.078Z,4.17
2022-11-19T01:26:15.104Z,3.37
2022-11-19T01:28:45.618Z,3.20
2022-11-19T01:31:19.604Z,3.20
2022-11-19T01:33:49.268Z,3.47
2022-11-19T01:36:20.488Z,3.43
2022-11-19T01:38:51.117Z,3.33
2022-11-19T01:41:21.407Z,4.00
2022-11-19T01:43:53.826Z,3.53
2022-11-19T01:46:27.748Z,3.10
2022-11-19T01:49:04.467Z,3.87
2022-11-19T01:51:38.639Z,4.10
2022-11-19T01:54:17.352Z,3.23
2022-11-19T01:56:47.079Z,3.30
2022-11-19T01:59:20.495Z,3.93
2022-11-19T02:01:53.067Z,3.97
2022-11-19T02:04:24.730Z,4.40
2022-11-19T02:06:56.164Z,3.47
2022-11-19T02:09:27.771Z,3.73
2022-11-19T02:12:25.573Z,4.17
2022-11-19T02:15:23.878Z,3.57
2022-11-19T02:18:24.097Z,3.90
2022-11-19T02:21:07.490Z,4.27
2022-11-19T02:24:24.076Z,4.00
2022-11-19T02:27:55.898Z,4.00
2022-11-19T02:30:25.934Z,3.63
2022-11-19T02:33:09.150Z,4.47
2022-11-19T02:35:51.355Z,3.47
2022-11-19T02:38:29.827Z,2.97
2022-11-19T02:41:26.173Z,3.30
2022-11-19T02:44:22.129Z,3.50
2022-11-19T02:46:55.926Z,3.77
2022-11-19T02:49:31.617Z,3.63
2022-11-19T02:52:01.570Z,3.43
2022-11-19T02:54:31.180Z,4.10
2022-11-19T02:57:02.891Z,4.03
2022-11-19T02:59:58.338Z,3.63
2022-11-19T03:02:54.393Z,3.13
2022-11-19T03:05:32.087Z,4.23
2022-11-19T03:08:01.286Z,3.60
2022-11-19T03:10:47.089Z,3.90
2022-11-19T03:13:43.273Z,3.60
2022-11-19T03:16:44.502Z,3.40
2022-11-19T03:19:35.346Z,3.30
2022-11-19T03:22:13.479Z,3.60
2022-11-19T03:24:48.281Z,3.63
2022-11-19T03:27:26.119Z,3.27
2022-11-19T03:30:02.188Z,3.73
2022-11-19T03:32:41.922Z,3.50
2022-11-19T03:35:19.760Z,3.80
2022-11-19T03:37:54.052Z,3.70
2022-11-19T03:40:29.473Z,4.03
2022-11-19T03:43:02.200Z,4.17
2022-11-19T03:45:41.338Z,3.63
2022-11-19T03:48:10.868Z,3.80
2022-11-19T03:50:49.957Z,3.57
2022-11-19T03:53:19.609Z,3.70
2022-11-19T03:56:00.541Z,3.87
2022-11-19T03:58:30.128Z,3.77
2022-11-19T04:01:00.703Z,3.50
2022-11-19T04:03:31.303Z,4.10
2022-11-19T04:06:02.274Z,3.63
2022-11-19T04:08:32.905Z,3.73
2022-11-19T04:13:30.142Z,3.30
2022-11-19T04:15:59.202Z,3.40
2022-11-19T04:18:29.529Z,3.40
2022-11-19T04:20:58.561Z,3.80
2022-11-19T04:23:29.512Z,4.27
2022-11-19T04:25:59.485Z,4.40
2022-11-19T04:28:29.042Z,3.20
2022-11-19T04:30:58.047Z,4.13
2022-11-19T04:33:26.787Z,3.70
2022-11-19T04:35:55.286Z,3.50
2022-11-19T04:38:25.282Z,4.43
2022-11-19T04:40:56.119Z,4.10
2022-11-19T04:43:26.052Z,3.43
2022-11-19T04:45:55.629Z,3.20
2022-11-19T04:48:25.246Z,3.23
2022-11-19T04:50:54.296Z,3.37
2022-11-19T04:53:24.942Z,3.50
2022-11-19T04:55:55.425Z,4.33
2022-11-19T04:58:23.954Z,3.43
2022-11-19T05:00:53.538Z,4.23
2022-11-19T05:03:22.693Z,4.60
2022-11-19T05:05:52.278Z,3.70
2022-11-19T05:08:22.880Z,4.20
2022-11-19T05:10:52.096Z,3.50
2022-11-19T05:13:23.229Z,4.03
2022-11-19T05:15:52.152Z,3.63
2022-11-19T05:18:21.607Z,3.77
2022-11-19T05:20:51.237Z,3.40
2022-11-19T05:23:21.206Z,3.37
2022-11-19T05:25:50.574Z,3.50
2022-11-19T05:28:32.833Z,3.13
2022-11-19T05:31:08.582Z,2.67
2022-11-19T05:33:38.694Z,3.10
2022-11-19T05:36:10.449Z,2.00
2022-11-19T05:38:41.222Z,2.47
2022-11-19T05:41:11.010Z,2.50
2022-11-19T05:43:41.882Z,2.87
2022-11-19T05:46:12.683Z,8.47
2022-11-19T05:48:42.737Z,2.40
2022-11-19T05:51:16.331Z,2.63
2022-11-19T05:53:46.073Z,2.30
2022-11-19T05:56:15.954Z,2.60
2022-11-19T05:58:47.149Z,2.00
2022-11-19T06:01:17.158Z,1.93
2022-11-19T06:03:47.493Z,2.10
2022-11-19T06:06:16.590Z,2.20
2022-11-19T06:08:45.852Z,2.80
2022-11-19T06:11:28.689Z,2.13
2022-11-19T06:13:59.321Z,2.33
2022-11-19T06:16:28.245Z,2.30
2022-11-19T06:18:57.867Z,2.77
2022-11-19T06:21:26.892Z,2.43
2022-11-19T06:23:55.975Z,2.03
2022-11-19T06:26:26.867Z,2.47
2022-11-19T06:28:57.902Z,2.57
2022-11-19T06:31:28.427Z,2.00
2022-11-19T06:33:57.560Z,1.90
2022-11-19T06:36:27.726Z,2.10
2022-11-19T06:38:58.067Z,2.50
2022-11-19T06:41:29.075Z,2.37
2022-11-19T06:44:00.413Z,2.37
2022-11-19T06:46:30.035Z,2.17
2022-11-19T06:49:01.021Z,2.30
2022-11-19T06:51:30.252Z,2.40
2022-11-19T06:53:59.851Z,2.10
2022-11-19T06:56:30.422Z,2.50
2022-11-19T06:59:02.154Z,2.23
2022-11-19T07:01:31.836Z,2.30
2022-11-19T07:04:01.656Z,2.20
2022-11-19T07:06:32.137Z,2.30
2022-11-19T07:09:01.951Z,1.90
2022-11-19T07:11:32.756Z,2.00
2022-11-19T07:14:04.091Z,2.60
2022-11-19T07:16:36.838Z,2.00
2022-11-19T07:19:09.076Z,1.93
2022-11-19T07:21:38.728Z,2.13
2022-11-19T07:24:10.946Z,2.20
2022-11-19T07:26:40.089Z,2.23
2022-11-19T07:29:13.914Z,2.07
2022-11-19T07:31:43.284Z,2.50
2022-11-19T07:34:13.506Z,2.57
2022-11-19T07:36:42.748Z,2.00
2022-11-19T07:39:12.323Z,2.07
2022-11-19T07:41:58.837Z,2.40
2022-11-19T07:44:29.606Z,2.50
2022-11-19T07:46:59.389Z,2.40
2022-11-19T07:49:29.420Z,2.70
2022-11-19T07:51:58.002Z,2.40
2022-11-19T07:54:27.364Z,2.67
2022-11-19T07:56:56.263Z,2.10
2022-11-19T07:59:26.979Z,2.23
2022-11-19T08:01:57.616Z,2.50
2022-11-19T08:04:28.578Z,1.90
2022-11-19T08:06:58.491Z,2.50
2022-11-19T08:09:27.446Z,2.50
2022-11-19T08:11:57.077Z,2.40
2022-11-19T08:14:27.180Z,4.07
2022-11-19T08:17:16.389Z,3.50
2022-11-19T08:19:46.068Z,3.40
2022-11-19T08:22:15.340Z,3.07
2022-11-19T08:24:45.344Z,4.80
2022-11-19T08:27:14.535Z,4.23
2022-11-19T08:29:44.153Z,4.33
2022-11-19T08:32:14.123Z,2.90
2022-11-19T08:34:45.483Z,3.07
2022-11-19T08:37:15.613Z,3.60
2022-11-19T08:39:44.603Z,4.03
2022-11-19T08:42:32.175Z,3.33
2022-11-19T08:45:02.513Z,3.30
2022-11-19T08:47:34.030Z,4.00
2022-11-19T08:50:03.676Z,2.80
2022-11-19T08:52:32.716Z,3.10
2022-11-19T08:55:02.393Z,3.30
2022-11-19T08:57:31.525Z,3.50
2022-11-19T09:00:05.882Z,3.53
2022-11-19T09:02:37.415Z,3.70
2022-11-19T09:05:14.561Z,3.50
2022-11-19T09:07:43.947Z,3.40
2022-11-19T09:10:12.625Z,3.80
2022-11-19T09:12:41.215Z,3.40
2022-11-19T09:15:12.913Z,3.47
2022-11-19T09:17:47.051Z,2.90
2022-11-19T09:20:16.516Z,1.60
2022-11-19T09:22:46.020Z,1.50
2022-11-19T09:25:15.726Z,1.30
2022-11-19T09:27:45.776Z,1.07
2022-11-19T09:30:15.977Z,0.90
2022-11-19T09:32:47.968Z,1.27
2022-11-19T09:35:17.432Z,1.23
2022-11-19T09:37:47.169Z,1.70
2022-11-19T09:40:20.718Z,1.37
2022-11-19T09:43:08.487Z,1.00
2022-11-19T09:45:59.115Z,1.30
2022-11-19T09:48:38.169Z,1.13
2022-11-19T09:51:14.138Z,1.27
2022-11-19T09:53:50.062Z,1.10
2022-11-19T09:56:31.044Z,1.03
2022-11-19T09:59:04.334Z,1.10
2022-11-19T10:01:38.592Z,1.37
2022-11-19T10:04:11.682Z,1.10
2022-11-19T10:06:54.955Z,1.07
2022-11-19T10:09:42.799Z,1.30
2022-11-19T10:12:43.781Z,1.10
2022-11-19T10:15:25.533Z,1.20
2022-11-19T10:18:12.471Z,1.00
2022-11-19T10:21:12.724Z,1.20
2022-11-19T10:23:56.113Z,1.10
2022-11-19T10:26:35.864Z,1.30
2022-11-19T10:29:16.812Z,1.20
2022-11-19T10:31:51.320Z,1.00
2022-11-19T10:34:30.092Z,1.33
2022-11-19T10:37:10.421Z,1.53
2022-11-19T10:39:45.050Z,1.30
2022-11-19T10:42:23.203Z,1.37
2022-11-19T10:45:00.086Z,2.20
2022-11-19T10:47:42.470Z,1.00
2022-11-19T10:50:19.186Z,0.90
2022-11-19T10:52:56.125Z,0.90
2022-11-19T10:55:30.165Z,0.90
2022-11-19T10:58:14.627Z,0.93
2022-11-19T11:00:44.979Z,1.20
2022-11-19T11:03:25.280Z,1.03
2022-11-19T11:06:02.138Z,1.00
2022-11-19T11:08:33.756Z,1.03
2022-11-19T11:11:03.109Z,0.90
2022-11-19T11:13:57.985Z,0.93
2022-11-19T11:16:42.314Z,1.00
2022-11-19T11:19:18.264Z,1.20
2022-11-19T11:21:52.468Z,1.03
2022-11-19T11:24:23.557Z,0.90
2022-11-19T11:27:21.881Z,1.17
2022-11-19T11:30:05.109Z,0.90
2022-11-19T11:32:35.024Z,1.20
2022-11-19T11:35:07.532Z,1.20
2022-11-19T11:37:38.728Z,1.20
2022-11-19T11:40:21.598Z,1.30
2022-11-19T11:42:54.623Z,0.90
2022-11-19T11:45:33.045Z,1.40
2022-11-19T11:48:09.102Z,1.00
2022-11-19T11:50:40.000Z,1.10
2022-11-19T11:53:11.101Z,1.10
2022-11-19T11:55:43.720Z,1.20
2022-11-19T11:58:30.798Z,1.10
2022-11-19T12:01:18.473Z,1.17
2022-11-19T12:03:56.400Z,1.13
2022-11-19T12:06:38.094Z,1.10
2022-11-19T12:09:19.486Z,1.60
2022-11-19T12:12:01.225Z,1.10
2022-11-19T12:14:38.774Z,1.43
2022-11-19T12:17:24.324Z,1.53
2022-11-19T12:20:18.100Z,2.30
2022-11-19T12:23:08.303Z,1.70
2022-11-19T12:25:46.974Z,1.43
2022-11-19T12:28:49.952Z,1.30
2022-11-19T12:31:36.469Z,1.10
2022-11-19T12:34:36.970Z,1.30
2022-11-19T12:37:28.330Z,0.97
2022-11-19T12:40:12.060Z,1.30
2022-11-19T12:42:59.414Z,0.80
2022-11-19T12:45:44.099Z,0.93
2022-11-19T12:48:55.865Z,1.10
2022-11-19T12:51:42.250Z,1.00
2022-11-19T12:54:35.680Z,1.07
2022-11-19T12:57:31.608Z,1.10
2022-11-19T13:00:34.653Z,1.10
2022-11-19T13:03:16.475Z,0.90
2022-11-19T13:05:56.380Z,1.27
2022-11-19T13:08:36.547Z,1.20
2022-11-19T13:11:11.488Z,1.30
2022-11-19T13:13:48.773Z,1.20
2022-11-19T13:16:23.939Z,0.93
2022-11-19T13:18:58.307Z,1.17
2022-11-19T13:21:42.624Z,1.30
2022-11-19T13:24:30.685Z,1.40
2022-11-19T13:27:05.675Z,1.20
2022-11-19T13:29:44.369Z,1.37
2022-11-19T13:32:24.757Z,1.43
2022-11-19T13:35:11.866Z,1.23
2022-11-19T13:37:58.219Z,1.03
2022-11-19T13:40:37.085Z,1.63
2022-11-19T13:43:32.482Z,1.40
2022-11-19T13:46:18.393Z,1.30
2022-11-19T13:48:59.703Z,1.40
2022-11-19T13:51:36.255Z,1.57
2022-11-19T13:54:09.336Z,1.50
2022-11-19T13:56:48.663Z,1.77
2022-11-19T13:59:51.968Z,1.50
2022-11-19T14:03:11.453Z,1.60
2022-11-19T14:06:50.742Z,1.80
2022-11-19T14:09:35.985Z,1.20
2022-11-19T14:12:41.734Z,1.47
2022-11-19T14:16:14.447Z,1.50
2022-11-19T14:19:06.041Z,1.43
2022-11-19T14:22:18.068Z,1.40
2022-11-19T14:25:17.823Z,1.40
2022-11-19T14:27:46.652Z,1.70
2022-11-19T14:30:19.910Z,1.50
2022-11-19T14:32:52.459Z,1.23
2022-11-19T14:35:43.434Z,1.40
2022-11-19T14:38:42.534Z,1.40
2022-11-19T14:41:32.030Z,1.40
2022-11-19T14:44:14.568Z,1.40
2022-11-19T14:46:48.187Z,1.43
2022-11-19T14:49:38.160Z,1.50
2022-11-19T14:52:25.185Z,1.63
2022-11-19T14:55:01.145Z,1.20
2022-11-19T14:57:33.501Z,1.53
2022-11-19T15:00:08.221Z,1.67
2022-11-19T15:02:45.729Z,1.70
2022-11-19T15:05:23.412Z,1.40
2022-11-19T15:08:13.913Z,1.53
2022-11-19T15:11:07.494Z,1.50
2022-11-19T15:13:39.339Z,1.60
2022-11-19T15:16:14.563Z,1.60
2022-11-19T15:19:24.928Z,1.60
2022-11-19T15:22:47.298Z,1.70
2022-11-19T15:25:38.969Z,1.90
2022-11-19T15:28:29.759Z,2.60
2022-11-19T15:31:28.428Z,1.97
2022-11-19T15:34:49.219Z,1.70
2022-11-19T15:37:35.198Z,1.50
2022-11-19T15:40:08.219Z,1.30
2022-11-19T15:42:49.152Z,1.20
2022-11-19T15:45:24.409Z,1.20
2022-11-19T15:48:13.976Z,1.87
2022-11-19T15:50:45.812Z,1.97
2022-11-19T15:53:21.167Z,1.43
2022-11-19T15:55:57.640Z,1.57
2022-11-19T15:58:38.234Z,1.67
2022-11-19T16:01:16.624Z,1.57
2022-11-19T16:03:46.476Z,1.93
2022-11-19T16:06:23.789Z,1.93
2022-11-19T16:08:56.162Z,2.03
2022-11-19T16:11:47.931Z,1.87
2022-11-19T16:15:00.325Z,1.70
2022-11-19T16:17:43.785Z,1.80
2022-11-19T16:20:23.745Z,1.80
2022-11-19T16:22:59.612Z,2.10
2022-11-19T16:25:37.243Z,1.70
2022-11-19T16:28:11.917Z,1.50
2022-11-19T16:30:47.396Z,2.17
2022-11-19T16:33:24.012Z,1.73
2022-11-19T16:36:11.184Z,1.43
2022-11-19T16:38:44.158Z,2.00
2022-11-19T16:41:32.591Z,1.50
2022-11-19T16:44:05.876Z,1.80
2022-11-19T16:46:37.682Z,1.60
2022-11-19T16:49:30.998Z,1.70
2022-11-19T16:52:03.071Z,2.27
2022-11-19T16:54:48.159Z,2.30
2022-11-19T16:57:21.104Z,2.10
2022-11-19T16:59:54.277Z,2.60
2022-11-19T17:02:27.499Z,2.40
2022-11-19T17:05:09.492Z,1.80
2022-11-19T17:07:39.308Z,2.30
2022-11-19T17:10:31.626Z,2.43
2022-11-19T17:13:04.307Z,2.50
2022-11-19T17:15:38.555Z,2.23
2022-11-19T17:18:17.869Z,2.20
2022-11-19T17:21:00.748Z,2.07
2022-11-19T17:23:32.998Z,1.90
2022-11-19T17:26:06.749Z,1.83
2022-11-19T17:28:45.324Z,2.03
2022-11-19T17:31:18.831Z,1.80
2022-11-19T17:33:54.065Z,2.00
2022-11-19T17:36:26.424Z,2.47
2022-11-19T17:38:55.794Z,2.17
2022-11-19T17:41:45.720Z,1.80
2022-11-19T17:44:34.988Z,2.33
2022-11-19T17:47:13.490Z,2.30
2022-11-19T17:49:50.237Z,1.80
2022-11-19T17:52:26.110Z,1.80
2022-11-19T17:54:59.168Z,2.40
2022-11-19T17:57:28.390Z,2.20
2022-11-19T17:59:57.728Z,2.13
2022-11-19T18:02:27.594Z,2.70
2022-11-19T18:04:58.341Z,1.97
2022-11-19T18:07:29.680Z,1.97
2022-11-19T18:09:59.436Z,2.80
2022-11-19T18:12:28.903Z,2.40
2022-11-19T18:15:01.915Z,2.27
2022-11-19T18:17:30.777Z,2.10
2022-11-19T18:20:00.944Z,2.40
2022-11-19T18:22:31.400Z,2.20
2022-11-19T18:25:02.168Z,2.47
2022-11-19T18:27:32.087Z,2.73
2022-11-19T18:30:02.097Z,2.63
2022-11-19T18:32:31.403Z,2.60
2022-11-19T18:35:02.087Z,2.70
2022-11-19T18:37:32.877Z,2.80
2022-11-19T18:40:03.006Z,2.40
2022-11-19T18:42:33.240Z,2.17
2022-11-19T18:45:01.374Z,2.73
2022-11-19T18:47:31.003Z,2.77
2022-11-19T18:50:00.785Z,2.20
2022-11-19T18:52:31.662Z,2.60
2022-11-19T18:55:02.288Z,2.17
2022-11-19T18:57:32.577Z,2.17
2022-11-19T19:00:02.467Z,2.60
2022-11-19T19:02:32.413Z,2.77
2022-11-19T19:05:01.930Z,2.90
2022-11-19T19:07:33.006Z,3.40
2022-11-19T19:10:03.299Z,2.73
2022-11-19T19:12:32.453Z,2.40
2022-11-19T19:15:02.183Z,2.33
2022-11-19T19:17:33.448Z,2.97
2022-11-19T19:20:03.673Z,2.20
2022-11-19T19:22:35.201Z,2.63
2022-11-19T19:25:05.862Z,2.90
2022-11-19T19:27:34.655Z,2.37
2022-11-19T19:30:03.495Z,2.60
2022-11-19T19:32:33.656Z,2.93
2022-11-19T19:35:03.448Z,2.30
2022-11-19T19:37:34.649Z,2.30
2022-11-19T19:40:03.225Z,3.00
2022-11-19T19:42:32.225Z,2.60
2022-11-19T19:45:03.083Z,3.33
2022-11-19T19:47:32.428Z,2.40
2022-11-19T19:50:01.002Z,2.50
2022-11-19T19:52:31.196Z,2.20
2022-11-19T19:55:02.552Z,2.20
2022-11-19T19:57:31.394Z,2.73
2022-11-19T20:00:00.576Z,2.67
2022-11-19T20:02:29.159Z,3.23
2022-11-19T20:04:58.052Z,3.10
2022-11-19T20:07:29.250Z,2.40
2022-11-19T20:09:58.382Z,2.30
2022-11-19T20:12:50.506Z,2.47
2022-11-19T20:15:20.539Z,2.60
2022-11-19T20:17:50.737Z,2.80
2022-11-19T20:20:20.760Z,2.20
2022-11-19T20:22:49.263Z,2.40
2022-11-19T20:25:18.770Z,2.10
2022-11-19T20:27:49.893Z,2.50
2022-11-19T20:30:19.095Z,2.63
2022-11-19T20:32:48.728Z,2.30
2022-11-19T20:35:19.508Z,1.87
2022-11-19T20:37:48.830Z,2.70
2022-11-19T20:40:19.969Z,2.27
2022-11-19T20:43:08.136Z,2.30
2022-11-19T20:45:36.809Z,2.10
2022-11-19T20:48:06.852Z,2.00
2022-11-19T20:50:37.168Z,2.57
2022-11-19T20:53:06.649Z,3.90
2022-11-19T20:55:44.280Z,2.90
2022-11-19T20:58:25.734Z,2.37
2022-11-19T21:01:01.687Z,2.50
2022-11-19T21:03:31.743Z,2.50
2022-11-19T21:06:02.169Z,2.40
2022-11-19T21:08:33.539Z,2.20
2022-11-19T21:11:04.710Z,2.40
2022-11-19T21:13:35.923Z,2.20
2022-11-19T21:16:09.423Z,2.80
2022-11-19T21:18:39.641Z,1.97
2022-11-19T21:21:09.439Z,1.83
2022-11-19T21:23:39.424Z,2.00
2022-11-19T21:26:11.112Z,2.30
2022-11-19T21:28:42.480Z,2.30
2022-11-19T21:31:12.391Z,2.10
2022-11-19T21:33:41.349Z,2.60
2022-11-19T21:36:11.749Z,2.20
2022-11-19T21:38:41.013Z,2.30
2022-11-19T21:41:11.410Z,1.93
2022-11-19T21:43:42.627Z,1.97
2022-11-19T21:46:13.375Z,2.23
2022-11-19T21:48:43.184Z,2.00
2022-11-19T21:51:13.607Z,1.90
2022-11-19T21:53:42.677Z,2.50
2022-11-19T21:56:12.388Z,2.10
2022-11-19T21:58:43.263Z,2.27
2022-11-19T22:01:13.470Z,3.03
2022-11-19T22:03:42.195Z,2.67
2022-11-19T22:06:13.241Z,2.67
2022-11-19T22:08:43.804Z,2.40
2022-11-19T22:11:32.685Z,2.30
2022-11-19T22:14:07.233Z,2.00
2022-11-19T22:16:38.088Z,2.47
2022-11-19T22:19:07.979Z,2.10
2022-11-19T22:21:37.508Z,2.33
2022-11-19T22:24:09.114Z,2.33
2022-11-19T22:26:39.637Z,2.33
2022-11-19T22:29:10.959Z,2.40
2022-11-19T22:31:44.492Z,2.40
2022-11-19T22:34:14.640Z,2.60
2022-11-19T22:36:43.500Z,2.40
2022-11-19T22:39:12.818Z,2.43
2022-11-19T22:41:42.715Z,2.60
2022-11-19T22:44:13.204Z,2.13
2022-11-19T22:46:42.130Z,2.50
2022-11-19T22:49:12.129Z,2.40
2022-11-19T22:51:40.834Z,2.50
2022-11-19T22:54:11.860Z,2.40
2022-11-19T22:56:41.216Z,2.33
2022-11-19T22:59:12.436Z,2.20
2022-11-19T23:01:42.293Z,2.53
2022-11-19T23:04:15.738Z,2.00
2022-11-19T23:06:45.581Z,2.50
2022-11-19T23:09:15.282Z,2.30
2022-11-19T23:12:02.960Z,2.57
2022-11-19T23:14:35.003Z,3.40
2022-11-19T23:17:03.604Z,2.87
2022-11-19T23:19:32.007Z,2.57
2022-11-19T23:22:00.768Z,3.20
2022-11-19T23:24:29.932Z,2.63
2022-11-19T23:26:58.927Z,2.40
2022-11-19T23:29:27.431Z,3.00
2022-11-19T23:31:57.256Z,3.67
2022-11-19T23:34:26.597Z,2.50
2022-11-19T23:36:55.507Z,2.63
2022-11-19T23:39:24.448Z,3.03
2022-11-19T23:41:53.474Z,2.37
2022-11-19T23:44:23.068Z,2.43
2022-11-19T23:46:53.164Z,2.40
2022-11-19T23:49:24.073Z,2.40
2022-11-19T23:51:54.513Z,2.60
2022-11-19T23:54:24.093Z,2.10
2022-11-19T23:56:53.382Z,2.40
2022-11-19T23:59:25.420Z,2.33
